sensor_id;sensor_type;location;lat;lon;timestamp;temperature;humidity
66928;DHT22;59882;45.624;11.698;2022-07-17T00:00:42;29.40;52.20
66928;DHT22;59882;45.624;11.698;2022-07-17T00:03:12;29.40;52.20
66928;DHT22;59882;45.624;11.698;2022-07-17T00:05:38;29.20;52.20
66928;DHT22;59882;45.624;11.698;2022-07-17T00:08:05;29.20;52.60
66928;DHT22;59882;45.624;11.698;2022-07-17T00:10:38;29.10;52.50
66928;DHT22;59882;45.624;11.698;2022-07-17T00:13:04;29.10;53.10
66928;DHT22;59882;45.624;11.698;2022-07-17T00:15:30;29.00;53.00
66928;DHT22;59882;45.624;11.698;2022-07-17T00:17:55;29.00;53.00
66928;DHT22;59882;45.624;11.698;2022-07-17T00:20:21;29.00;53.50
66928;DHT22;59882;45.624;11.698;2022-07-17T00:22:50;29.00;53.40
66928;DHT22;59882;45.624;11.698;2022-07-17T00:25:16;28.90;53.70
66928;DHT22;59882;45.624;11.698;2022-07-17T00:27:42;28.90;53.50
66928;DHT22;59882;45.624;11.698;2022-07-17T00:30:08;28.90;54.00
66928;DHT22;59882;45.624;11.698;2022-07-17T00:32:34;28.80;54.10
66928;DHT22;59882;45.624;11.698;2022-07-17T00:34:59;28.70;54.00
66928;DHT22;59882;45.624;11.698;2022-07-17T00:37:25;28.70;54.20
66928;DHT22;59882;45.624;11.698;2022-07-17T00:39:50;28.70;54.20
66928;DHT22;59882;45.624;11.698;2022-07-17T00:42:17;28.70;54.30
66928;DHT22;59882;45.624;11.698;2022-07-17T00:44:43;28.70;54.10
66928;DHT22;59882;45.624;11.698;2022-07-17T00:47:15;28.70;54.10
66928;DHT22;59882;45.624;11.698;2022-07-17T00:49:40;28.70;53.90
66928;DHT22;59882;45.624;11.698;2022-07-17T00:52:07;28.80;54.10
66928;DHT22;59882;45.624;11.698;2022-07-17T00:54:37;28.80;53.90
66928;DHT22;59882;45.624;11.698;2022-07-17T00:57:06;28.80;53.80
66928;DHT22;59882;45.624;11.698;2022-07-17T00:59:32;28.80;53.80
66928;DHT22;59882;45.624;11.698;2022-07-17T01:02:05;28.80;53.80
66928;DHT22;59882;45.624;11.698;2022-07-17T01:04:32;28.80;53.70
66928;DHT22;59882;45.624;11.698;2022-07-17T01:06:58;28.90;53.80
66928;DHT22;59882;45.624;11.698;2022-07-17T01:09:25;28.90;53.70
66928;DHT22;59882;45.624;11.698;2022-07-17T01:11:51;28.90;53.70
66928;DHT22;59882;45.624;11.698;2022-07-17T01:14:17;28.90;53.50
66928;DHT22;59882;45.624;11.698;2022-07-17T01:16:43;28.80;53.40
66928;DHT22;59882;45.624;11.698;2022-07-17T01:19:10;28.90;53.20
66928;DHT22;59882;45.624;11.698;2022-07-17T01:21:44;28.80;52.70
66928;DHT22;59882;45.624;11.698;2022-07-17T01:24:11;28.80;52.60
66928;DHT22;59882;45.624;11.698;2022-07-17T01:26:40;28.70;52.20
66928;DHT22;59882;45.624;11.698;2022-07-17T01:29:05;28.60;52.30
66928;DHT22;59882;45.624;11.698;2022-07-17T01:31:31;28.60;52.30
66928;DHT22;59882;45.624;11.698;2022-07-17T01:33:58;28.50;52.30
66928;DHT22;59882;45.624;11.698;2022-07-17T01:36:25;28.50;52.20
66928;DHT22;59882;45.624;11.698;2022-07-17T01:38:51;28.40;52.30
66928;DHT22;59882;45.624;11.698;2022-07-17T01:41:17;28.40;52.30
66928;DHT22;59882;45.624;11.698;2022-07-17T01:43:43;28.40;52.20
66928;DHT22;59882;45.624;11.698;2022-07-17T01:46:08;28.40;52.20
66928;DHT22;59882;45.624;11.698;2022-07-17T01:48:34;28.30;52.20
66928;DHT22;59882;45.624;11.698;2022-07-17T01:50:59;28.30;52.10
66928;DHT22;59882;45.624;11.698;2022-07-17T01:53:25;28.30;52.20
66928;DHT22;59882;45.624;11.698;2022-07-17T01:55:51;28.30;52.20
66928;DHT22;59882;45.624;11.698;2022-07-17T01:58:17;28.30;52.20
66928;DHT22;59882;45.624;11.698;2022-07-17T02:00:43;28.30;52.10
66928;DHT22;59882;45.624;11.698;2022-07-17T02:03:09;28.30;51.90
66928;DHT22;59882;45.624;11.698;2022-07-17T02:05:34;28.30;52.10
66928;DHT22;59882;45.624;11.698;2022-07-17T02:08:00;28.30;52.10
66928;DHT22;59882;45.624;11.698;2022-07-17T02:10:26;28.20;52.30
66928;DHT22;59882;45.624;11.698;2022-07-17T02:12:52;28.20;52.70
66928;DHT22;59882;45.624;11.698;2022-07-17T02:15:17;28.10;52.50
66928;DHT22;59882;45.624;11.698;2022-07-17T02:17:43;28.10;52.60
66928;DHT22;59882;45.624;11.698;2022-07-17T02:20:10;28.10;52.60
66928;DHT22;59882;45.624;11.698;2022-07-17T02:22:37;28.00;52.70
66928;DHT22;59882;45.624;11.698;2022-07-17T02:25:03;28.00;52.60
66928;DHT22;59882;45.624;11.698;2022-07-17T02:27:31;28.00;52.50
66928;DHT22;59882;45.624;11.698;2022-07-17T02:29:57;28.00;52.10
66928;DHT22;59882;45.624;11.698;2022-07-17T02:32:22;28.00;52.00
66928;DHT22;59882;45.624;11.698;2022-07-17T02:34:48;28.00;52.10
66928;DHT22;59882;45.624;11.698;2022-07-17T02:37:14;28.00;51.70
66928;DHT22;59882;45.624;11.698;2022-07-17T02:39:39;27.90;51.60
66928;DHT22;59882;45.624;11.698;2022-07-17T02:42:27;27.90;51.50
66928;DHT22;59882;45.624;11.698;2022-07-17T02:44:54;27.80;51.40
66928;DHT22;59882;45.624;11.698;2022-07-17T02:47:33;27.70;50.90
66928;DHT22;59882;45.624;11.698;2022-07-17T02:49:59;27.60;51.10
66928;DHT22;59882;45.624;11.698;2022-07-17T02:52:27;27.60;51.00
66928;DHT22;59882;45.624;11.698;2022-07-17T02:54:53;27.50;51.20
66928;DHT22;59882;45.624;11.698;2022-07-17T02:57:19;27.50;51.00
66928;DHT22;59882;45.624;11.698;2022-07-17T02:59:46;27.50;50.60
66928;DHT22;59882;45.624;11.698;2022-07-17T03:02:12;27.50;50.80
66928;DHT22;59882;45.624;11.698;2022-07-17T03:04:37;27.50;50.30
66928;DHT22;59882;45.624;11.698;2022-07-17T03:07:03;27.50;49.80
66928;DHT22;59882;45.624;11.698;2022-07-17T03:09:29;27.50;49.70
66928;DHT22;59882;45.624;11.698;2022-07-17T03:11:54;27.50;49.70
66928;DHT22;59882;45.624;11.698;2022-07-17T03:14:20;27.50;49.30
66928;DHT22;59882;45.624;11.698;2022-07-17T03:16:46;27.40;49.20
66928;DHT22;59882;45.624;11.698;2022-07-17T03:19:11;27.40;49.40
66928;DHT22;59882;45.624;11.698;2022-07-17T03:21:37;27.40;49.40
66928;DHT22;59882;45.624;11.698;2022-07-17T03:24:04;27.40;48.90
66928;DHT22;59882;45.624;11.698;2022-07-17T03:26:30;27.40;49.00
66928;DHT22;59882;45.624;11.698;2022-07-17T03:28:55;27.30;49.10
66928;DHT22;59882;45.624;11.698;2022-07-17T03:31:21;27.30;49.20
66928;DHT22;59882;45.624;11.698;2022-07-17T03:33:46;27.30;49.30
66928;DHT22;59882;45.624;11.698;2022-07-17T03:36:12;27.30;49.10
66928;DHT22;59882;45.624;11.698;2022-07-17T03:38:38;27.30;49.10
66928;DHT22;59882;45.624;11.698;2022-07-17T03:41:03;27.40;48.90
66928;DHT22;59882;45.624;11.698;2022-07-17T03:43:29;27.40;49.00
66928;DHT22;59882;45.624;11.698;2022-07-17T03:45:55;27.30;48.70
66928;DHT22;59882;45.624;11.698;2022-07-17T03:48:20;27.40;48.90
66928;DHT22;59882;45.624;11.698;2022-07-17T03:50:46;27.40;48.90
66928;DHT22;59882;45.624;11.698;2022-07-17T03:53:11;27.40;48.60
66928;DHT22;59882;45.624;11.698;2022-07-17T03:55:37;27.40;48.70
66928;DHT22;59882;45.624;11.698;2022-07-17T03:58:03;27.40;48.80
66928;DHT22;59882;45.624;11.698;2022-07-17T04:00:28;27.40;48.90
66928;DHT22;59882;45.624;11.698;2022-07-17T04:02:54;27.40;49.00
66928;DHT22;59882;45.624;11.698;2022-07-17T04:05:20;27.40;48.90
66928;DHT22;59882;45.624;11.698;2022-07-17T04:07:45;27.50;48.80
66928;DHT22;59882;45.624;11.698;2022-07-17T04:10:13;27.50;48.70
66928;DHT22;59882;45.624;11.698;2022-07-17T04:12:39;27.50;48.60
66928;DHT22;59882;45.624;11.698;2022-07-17T04:15:05;27.50;48.50
66928;DHT22;59882;45.624;11.698;2022-07-17T04:17:32;27.60;48.40
66928;DHT22;59882;45.624;11.698;2022-07-17T04:19:57;27.60;48.40
66928;DHT22;59882;45.624;11.698;2022-07-17T04:22:23;27.60;48.50
66928;DHT22;59882;45.624;11.698;2022-07-17T04:24:50;27.60;48.40
66928;DHT22;59882;45.624;11.698;2022-07-17T04:27:16;27.60;48.40
66928;DHT22;59882;45.624;11.698;2022-07-17T04:29:42;27.60;48.40
66928;DHT22;59882;45.624;11.698;2022-07-17T04:32:08;27.60;48.40
66928;DHT22;59882;45.624;11.698;2022-07-17T04:34:34;27.70;48.60
66928;DHT22;59882;45.624;11.698;2022-07-17T04:37:00;27.60;48.50
66928;DHT22;59882;45.624;11.698;2022-07-17T04:39:27;27.70;48.50
66928;DHT22;59882;45.624;11.698;2022-07-17T04:41:53;27.70;48.50
66928;DHT22;59882;45.624;11.698;2022-07-17T04:44:18;27.60;48.50
66928;DHT22;59882;45.624;11.698;2022-07-17T04:46:45;27.70;48.60
66928;DHT22;59882;45.624;11.698;2022-07-17T04:49:11;27.70;48.60
66928;DHT22;59882;45.624;11.698;2022-07-17T04:51:37;27.70;48.60
66928;DHT22;59882;45.624;11.698;2022-07-17T04:54:03;27.70;48.70
66928;DHT22;59882;45.624;11.698;2022-07-17T04:56:29;27.70;48.50
66928;DHT22;59882;45.624;11.698;2022-07-17T04:58:54;27.70;48.60
66928;DHT22;59882;45.624;11.698;2022-07-17T05:01:20;27.70;48.60
66928;DHT22;59882;45.624;11.698;2022-07-17T05:03:45;27.70;48.70
66928;DHT22;59882;45.624;11.698;2022-07-17T05:06:11;27.70;48.70
66928;DHT22;59882;45.624;11.698;2022-07-17T05:08:37;27.80;48.70
66928;DHT22;59882;45.624;11.698;2022-07-17T05:11:03;27.70;48.70
66928;DHT22;59882;45.624;11.698;2022-07-17T05:13:29;27.80;48.70
66928;DHT22;59882;45.624;11.698;2022-07-17T05:15:55;27.80;48.50
66928;DHT22;59882;45.624;11.698;2022-07-17T05:18:20;27.80;48.60
66928;DHT22;59882;45.624;11.698;2022-07-17T05:20:46;27.80;48.50
66928;DHT22;59882;45.624;11.698;2022-07-17T05:23:12;27.80;48.40
66928;DHT22;59882;45.624;11.698;2022-07-17T05:25:37;27.80;48.40
66928;DHT22;59882;45.624;11.698;2022-07-17T05:28:03;27.80;48.40
66928;DHT22;59882;45.624;11.698;2022-07-17T05:30:29;27.90;48.50
66928;DHT22;59882;45.624;11.698;2022-07-17T05:32:55;27.90;48.50
66928;DHT22;59882;45.624;11.698;2022-07-17T05:35:21;27.90;48.70
66928;DHT22;59882;45.624;11.698;2022-07-17T05:37:46;27.90;48.90
66928;DHT22;59882;45.624;11.698;2022-07-17T05:40:12;27.90;48.90
66928;DHT22;59882;45.624;11.698;2022-07-17T05:42:38;27.90;48.90
66928;DHT22;59882;45.624;11.698;2022-07-17T05:45:04;27.90;48.90
66928;DHT22;59882;45.624;11.698;2022-07-17T05:47:30;27.90;48.90
66928;DHT22;59882;45.624;11.698;2022-07-17T05:49:56;28.00;48.80
66928;DHT22;59882;45.624;11.698;2022-07-17T05:52:22;28.00;48.70
66928;DHT22;59882;45.624;11.698;2022-07-17T05:54:48;28.00;48.60
66928;DHT22;59882;45.624;11.698;2022-07-17T05:57:13;28.00;48.60
66928;DHT22;59882;45.624;11.698;2022-07-17T05:59:39;28.10;48.40
66928;DHT22;59882;45.624;11.698;2022-07-17T06:02:05;28.10;48.30
66928;DHT22;59882;45.624;11.698;2022-07-17T06:04:30;28.10;48.10
66928;DHT22;59882;45.624;11.698;2022-07-17T06:06:56;28.00;48.00
66928;DHT22;59882;45.624;11.698;2022-07-17T06:09:22;28.10;47.70
66928;DHT22;59882;45.624;11.698;2022-07-17T06:11:47;28.10;47.60
66928;DHT22;59882;45.624;11.698;2022-07-17T06:14:13;28.10;47.70
66928;DHT22;59882;45.624;11.698;2022-07-17T06:16:39;28.10;47.40
66928;DHT22;59882;45.624;11.698;2022-07-17T06:19:05;28.20;47.10
66928;DHT22;59882;45.624;11.698;2022-07-17T06:21:30;28.20;46.90
66928;DHT22;59882;45.624;11.698;2022-07-17T06:23:56;28.20;46.90
66928;DHT22;59882;45.624;11.698;2022-07-17T06:26:21;28.20;46.80
66928;DHT22;59882;45.624;11.698;2022-07-17T06:28:47;28.20;46.50
66928;DHT22;59882;45.624;11.698;2022-07-17T06:31:13;28.30;46.60
66928;DHT22;59882;45.624;11.698;2022-07-17T06:33:39;28.30;46.40
66928;DHT22;59882;45.624;11.698;2022-07-17T06:36:04;28.30;46.20
66928;DHT22;59882;45.624;11.698;2022-07-17T06:38:32;28.40;46.10
66928;DHT22;59882;45.624;11.698;2022-07-17T06:40:58;28.30;46.20
66928;DHT22;59882;45.624;11.698;2022-07-17T06:43:24;28.40;46.00
66928;DHT22;59882;45.624;11.698;2022-07-17T06:45:50;28.40;45.90
66928;DHT22;59882;45.624;11.698;2022-07-17T06:48:19;28.40;45.70
66928;DHT22;59882;45.624;11.698;2022-07-17T06:50:46;28.40;45.70
66928;DHT22;59882;45.624;11.698;2022-07-17T06:53:11;28.40;45.70
66928;DHT22;59882;45.624;11.698;2022-07-17T06:55:37;28.40;45.70
66928;DHT22;59882;45.624;11.698;2022-07-17T06:58:03;28.50;45.60
66928;DHT22;59882;45.624;11.698;2022-07-17T07:00:29;28.50;45.40
66928;DHT22;59882;45.624;11.698;2022-07-17T07:02:54;28.50;45.20
66928;DHT22;59882;45.624;11.698;2022-07-17T07:05:20;28.50;45.20
66928;DHT22;59882;45.624;11.698;2022-07-17T07:07:46;28.50;45.20
66928;DHT22;59882;45.624;11.698;2022-07-17T07:10:12;28.60;44.70
66928;DHT22;59882;45.624;11.698;2022-07-17T07:12:37;28.60;44.50
66928;DHT22;59882;45.624;11.698;2022-07-17T07:15:03;28.60;44.00
66928;DHT22;59882;45.624;11.698;2022-07-17T07:17:30;28.60;44.40
66928;DHT22;59882;45.624;11.698;2022-07-17T07:19:57;28.60;44.60
66928;DHT22;59882;45.624;11.698;2022-07-17T07:22:23;28.60;44.40
66928;DHT22;59882;45.624;11.698;2022-07-17T07:24:49;28.60;44.20
66928;DHT22;59882;45.624;11.698;2022-07-17T07:27:14;28.60;43.80
66928;DHT22;59882;45.624;11.698;2022-07-17T07:29:40;28.60;44.10
66928;DHT22;59882;45.624;11.698;2022-07-17T07:32:06;28.70;44.00
66928;DHT22;59882;45.624;11.698;2022-07-17T07:34:31;28.60;43.10
66928;DHT22;59882;45.624;11.698;2022-07-17T07:36:57;28.70;43.50
66928;DHT22;59882;45.624;11.698;2022-07-17T07:39:23;28.60;43.10
66928;DHT22;59882;45.624;11.698;2022-07-17T07:41:48;28.70;43.10
66928;DHT22;59882;45.624;11.698;2022-07-17T07:44:14;28.70;43.20
66928;DHT22;59882;45.624;11.698;2022-07-17T07:46:39;28.70;42.80
66928;DHT22;59882;45.624;11.698;2022-07-17T07:49:05;28.70;42.60
66928;DHT22;59882;45.624;11.698;2022-07-17T07:51:31;28.70;42.50
66928;DHT22;59882;45.624;11.698;2022-07-17T07:53:56;28.80;42.20
66928;DHT22;59882;45.624;11.698;2022-07-17T07:56:22;28.80;42.30
66928;DHT22;59882;45.624;11.698;2022-07-17T07:58:48;28.80;42.20
66928;DHT22;59882;45.624;11.698;2022-07-17T08:01:13;28.80;41.70
66928;DHT22;59882;45.624;11.698;2022-07-17T08:03:39;28.80;42.10
66928;DHT22;59882;45.624;11.698;2022-07-17T08:06:05;28.80;42.10
66928;DHT22;59882;45.624;11.698;2022-07-17T08:08:30;28.90;42.10
66928;DHT22;59882;45.624;11.698;2022-07-17T08:10:56;28.90;42.00
66928;DHT22;59882;45.624;11.698;2022-07-17T08:13:22;28.90;42.00
66928;DHT22;59882;45.624;11.698;2022-07-17T08:15:47;28.90;41.40
66928;DHT22;59882;45.624;11.698;2022-07-17T08:18:13;28.90;41.90
66928;DHT22;59882;45.624;11.698;2022-07-17T08:20:39;28.90;41.50
66928;DHT22;59882;45.624;11.698;2022-07-17T08:23:05;28.90;41.70
66928;DHT22;59882;45.624;11.698;2022-07-17T08:25:31;29.00;41.80
66928;DHT22;59882;45.624;11.698;2022-07-17T08:27:57;29.00;41.60
66928;DHT22;59882;45.624;11.698;2022-07-17T08:30:23;29.00;41.60
66928;DHT22;59882;45.624;11.698;2022-07-17T08:32:49;29.10;42.00
66928;DHT22;59882;45.624;11.698;2022-07-17T08:35:15;29.10;42.10
66928;DHT22;59882;45.624;11.698;2022-07-17T08:37:46;29.10;41.70
66928;DHT22;59882;45.624;11.698;2022-07-17T08:40:19;29.20;41.70
66928;DHT22;59882;45.624;11.698;2022-07-17T08:42:45;29.20;40.80
66928;DHT22;59882;45.624;11.698;2022-07-17T08:45:12;29.20;41.30
66928;DHT22;59882;45.624;11.698;2022-07-17T08:47:38;29.40;41.40
66928;DHT22;59882;45.624;11.698;2022-07-17T08:50:04;29.30;41.10
66928;DHT22;59882;45.624;11.698;2022-07-17T08:52:30;29.40;41.20
66928;DHT22;59882;45.624;11.698;2022-07-17T08:54:57;29.40;40.50
66928;DHT22;59882;45.624;11.698;2022-07-17T08:57:23;29.40;40.10
66928;DHT22;59882;45.624;11.698;2022-07-17T08:59:48;29.40;40.80
66928;DHT22;59882;45.624;11.698;2022-07-17T09:02:14;29.50;40.90
66928;DHT22;59882;45.624;11.698;2022-07-17T09:04:40;29.50;40.60
66928;DHT22;59882;45.624;11.698;2022-07-17T09:07:06;29.50;40.70
66928;DHT22;59882;45.624;11.698;2022-07-17T09:09:33;29.50;40.50
66928;DHT22;59882;45.624;11.698;2022-07-17T09:12:00;29.60;40.60
66928;DHT22;59882;45.624;11.698;2022-07-17T09:14:37;29.60;40.40
66928;DHT22;59882;45.624;11.698;2022-07-17T09:17:04;29.60;40.30
66928;DHT22;59882;45.624;11.698;2022-07-17T09:19:31;29.60;40.40
66928;DHT22;59882;45.624;11.698;2022-07-17T09:22:26;29.60;40.10
66928;DHT22;59882;45.624;11.698;2022-07-17T09:24:54;29.70;40.20
66928;DHT22;59882;45.624;11.698;2022-07-17T09:30:12;29.80;40.00
66928;DHT22;59882;45.624;11.698;2022-07-17T09:32:39;29.80;39.40
66928;DHT22;59882;45.624;11.698;2022-07-17T09:35:08;29.90;38.50
66928;DHT22;59882;45.624;11.698;2022-07-17T09:37:34;30.00;39.10
66928;DHT22;59882;45.624;11.698;2022-07-17T09:40:01;30.10;39.00
66928;DHT22;59882;45.624;11.698;2022-07-17T09:42:31;30.20;39.20
66928;DHT22;59882;45.624;11.698;2022-07-17T09:45:02;30.30;38.80
66928;DHT22;59882;45.624;11.698;2022-07-17T09:47:29;30.30;38.60
66928;DHT22;59882;45.624;11.698;2022-07-17T09:49:56;30.40;38.20
66928;DHT22;59882;45.624;11.698;2022-07-17T09:52:30;30.50;37.50
66928;DHT22;59882;45.624;11.698;2022-07-17T09:54:57;30.50;37.40
66928;DHT22;59882;45.624;11.698;2022-07-17T09:57:29;30.60;37.90
66928;DHT22;59882;45.624;11.698;2022-07-17T09:59:58;30.80;37.20
66928;DHT22;59882;45.624;11.698;2022-07-17T10:02:25;30.90;37.10
66928;DHT22;59882;45.624;11.698;2022-07-17T10:04:52;30.90;37.10
66928;DHT22;59882;45.624;11.698;2022-07-17T10:07:18;30.90;36.80
66928;DHT22;59882;45.624;11.698;2022-07-17T10:09:45;31.00;36.60
66928;DHT22;59882;45.624;11.698;2022-07-17T10:12:11;31.10;36.50
66928;DHT22;59882;45.624;11.698;2022-07-17T10:14:37;31.10;36.20
66928;DHT22;59882;45.624;11.698;2022-07-17T10:17:13;31.10;36.50
66928;DHT22;59882;45.624;11.698;2022-07-17T10:19:52;31.30;36.70
66928;DHT22;59882;45.624;11.698;2022-07-17T10:22:19;31.30;36.30
66928;DHT22;59882;45.624;11.698;2022-07-17T10:27:28;31.40;36.10
66928;DHT22;59882;45.624;11.698;2022-07-17T10:30:05;31.40;36.30
66928;DHT22;59882;45.624;11.698;2022-07-17T10:32:32;31.40;36.70
66928;DHT22;59882;45.624;11.698;2022-07-17T10:37:28;31.50;36.00
66928;DHT22;59882;45.624;11.698;2022-07-17T10:40:10;31.60;36.00
66928;DHT22;59882;45.624;11.698;2022-07-17T10:45:11;31.70;35.70
66928;DHT22;59882;45.624;11.698;2022-07-17T10:47:54;31.70;36.10
66928;DHT22;59882;45.624;11.698;2022-07-17T10:50:23;31.90;35.40
66928;DHT22;59882;45.624;11.698;2022-07-17T10:53:01;31.90;35.10
66928;DHT22;59882;45.624;11.698;2022-07-17T10:55:27;32.00;34.80
66928;DHT22;59882;45.624;11.698;2022-07-17T10:57:54;32.00;34.50
66928;DHT22;59882;45.624;11.698;2022-07-17T11:00:20;32.00;35.10
66928;DHT22;59882;45.624;11.698;2022-07-17T11:02:46;32.10;35.00
66928;DHT22;59882;45.624;11.698;2022-07-17T11:05:13;32.20;34.80
66928;DHT22;59882;45.624;11.698;2022-07-17T11:08:11;32.20;34.20
66928;DHT22;59882;45.624;11.698;2022-07-17T11:10:39;32.30;34.50
66928;DHT22;59882;45.624;11.698;2022-07-17T11:13:13;32.30;35.10
66928;DHT22;59882;45.624;11.698;2022-07-17T11:18:16;32.40;35.40
66928;DHT22;59882;45.624;11.698;2022-07-17T11:20:54;32.40;35.70
66928;DHT22;59882;45.624;11.698;2022-07-17T11:23:23;32.50;35.70
66928;DHT22;59882;45.624;11.698;2022-07-17T11:25:59;32.60;34.90
66928;DHT22;59882;45.624;11.698;2022-07-17T11:28:44;32.60;34.60
66928;DHT22;59882;45.624;11.698;2022-07-17T11:31:27;32.70;34.20
66928;DHT22;59882;45.624;11.698;2022-07-17T11:34:00;32.70;34.30
66928;DHT22;59882;45.624;11.698;2022-07-17T11:36:38;32.70;34.10
66928;DHT22;59882;45.624;11.698;2022-07-17T11:39:12;32.80;33.80
66928;DHT22;59882;45.624;11.698;2022-07-17T11:41:40;32.80;32.70
66928;DHT22;59882;45.624;11.698;2022-07-17T11:44:08;32.90;33.80
66928;DHT22;59882;45.624;11.698;2022-07-17T11:46:36;32.90;33.90
66928;DHT22;59882;45.624;11.698;2022-07-17T11:49:03;33.00;33.40
66928;DHT22;59882;45.624;11.698;2022-07-17T11:51:41;33.00;34.20
66928;DHT22;59882;45.624;11.698;2022-07-17T11:54:13;33.10;33.50
66928;DHT22;59882;45.624;11.698;2022-07-17T11:56:39;33.20;33.70
66928;DHT22;59882;45.624;11.698;2022-07-17T11:59:05;33.20;34.00
66928;DHT22;59882;45.624;11.698;2022-07-17T12:02:10;33.30;33.90
66928;DHT22;59882;45.624;11.698;2022-07-17T12:04:51;33.40;33.80
66928;DHT22;59882;45.624;11.698;2022-07-17T12:07:17;33.40;33.50
66928;DHT22;59882;45.624;11.698;2022-07-17T12:09:43;33.40;33.40
66928;DHT22;59882;45.624;11.698;2022-07-17T12:14:51;33.50;33.30
66928;DHT22;59882;45.624;11.698;2022-07-17T12:17:17;33.50;33.80
66928;DHT22;59882;45.624;11.698;2022-07-17T12:19:42;33.60;32.90
66928;DHT22;59882;45.624;11.698;2022-07-17T12:22:08;33.60;33.40
66928;DHT22;59882;45.624;11.698;2022-07-17T12:24:39;33.70;33.00
66928;DHT22;59882;45.624;11.698;2022-07-17T12:27:07;33.70;32.90
66928;DHT22;59882;45.624;11.698;2022-07-17T12:29:33;33.80;33.70
66928;DHT22;59882;45.624;11.698;2022-07-17T12:34:29;33.90;32.90
66928;DHT22;59882;45.624;11.698;2022-07-17T12:36:54;33.90;32.90
66928;DHT22;59882;45.624;11.698;2022-07-17T12:39:20;33.90;32.40
66928;DHT22;59882;45.624;11.698;2022-07-17T12:41:46;34.00;32.80
66928;DHT22;59882;45.624;11.698;2022-07-17T12:44:11;34.00;32.80
66928;DHT22;59882;45.624;11.698;2022-07-17T12:46:37;34.00;32.50
66928;DHT22;59882;45.624;11.698;2022-07-17T12:49:03;34.10;32.50
66928;DHT22;59882;45.624;11.698;2022-07-17T12:51:29;34.20;32.40
66928;DHT22;59882;45.624;11.698;2022-07-17T12:53:56;34.20;32.20
66928;DHT22;59882;45.624;11.698;2022-07-17T12:56:22;34.20;32.20
66928;DHT22;59882;45.624;11.698;2022-07-17T12:58:48;34.30;32.20
66928;DHT22;59882;45.624;11.698;2022-07-17T13:01:15;34.30;32.10
66928;DHT22;59882;45.624;11.698;2022-07-17T13:03:41;34.30;32.30
66928;DHT22;59882;45.624;11.698;2022-07-17T13:06:07;34.30;32.20
66928;DHT22;59882;45.624;11.698;2022-07-17T13:08:34;34.40;32.50
66928;DHT22;59882;45.624;11.698;2022-07-17T13:11:01;34.40;32.10
66928;DHT22;59882;45.624;11.698;2022-07-17T13:13:28;34.50;32.40
66928;DHT22;59882;45.624;11.698;2022-07-17T13:15:54;34.50;32.40
66928;DHT22;59882;45.624;11.698;2022-07-17T13:18:20;34.70;32.30
66928;DHT22;59882;45.624;11.698;2022-07-17T13:20:46;34.70;31.10
66928;DHT22;59882;45.624;11.698;2022-07-17T13:23:11;34.70;31.80
66928;DHT22;59882;45.624;11.698;2022-07-17T13:25:38;34.70;32.00
66928;DHT22;59882;45.624;11.698;2022-07-17T13:28:04;34.70;32.00
66928;DHT22;59882;45.624;11.698;2022-07-17T13:30:30;34.80;31.40
66928;DHT22;59882;45.624;11.698;2022-07-17T13:32:56;34.90;31.80
66928;DHT22;59882;45.624;11.698;2022-07-17T13:35:22;34.90;31.60
66928;DHT22;59882;45.624;11.698;2022-07-17T13:37:48;34.90;32.10
66928;DHT22;59882;45.624;11.698;2022-07-17T13:40:13;35.00;31.60
66928;DHT22;59882;45.624;11.698;2022-07-17T13:42:39;35.00;31.10
66928;DHT22;59882;45.624;11.698;2022-07-17T13:45:05;35.00;31.70
66928;DHT22;59882;45.624;11.698;2022-07-17T13:47:31;35.00;31.80
66928;DHT22;59882;45.624;11.698;2022-07-17T13:49:57;35.10;31.70
66928;DHT22;59882;45.624;11.698;2022-07-17T13:52:22;35.10;31.70
66928;DHT22;59882;45.624;11.698;2022-07-17T13:54:48;35.20;32.00
66928;DHT22;59882;45.624;11.698;2022-07-17T13:57:14;35.20;31.80
66928;DHT22;59882;45.624;11.698;2022-07-17T13:59:39;35.30;31.80
66928;DHT22;59882;45.624;11.698;2022-07-17T14:02:07;35.30;31.10
66928;DHT22;59882;45.624;11.698;2022-07-17T14:04:33;35.30;31.30
66928;DHT22;59882;45.624;11.698;2022-07-17T14:06:59;35.40;31.20
66928;DHT22;59882;45.624;11.698;2022-07-17T14:09:24;35.40;31.60
66928;DHT22;59882;45.624;11.698;2022-07-17T14:11:50;35.40;31.80
66928;DHT22;59882;45.624;11.698;2022-07-17T14:14:18;35.40;31.50
66928;DHT22;59882;45.624;11.698;2022-07-17T14:16:43;35.40;31.20
66928;DHT22;59882;45.624;11.698;2022-07-17T14:19:09;35.50;31.30
66928;DHT22;59882;45.624;11.698;2022-07-17T14:21:37;35.50;31.00
66928;DHT22;59882;45.624;11.698;2022-07-17T14:24:04;35.50;31.00
66928;DHT22;59882;45.624;11.698;2022-07-17T14:26:30;35.50;30.30
66928;DHT22;59882;45.624;11.698;2022-07-17T14:28:57;35.50;31.00
66928;DHT22;59882;45.624;11.698;2022-07-17T14:31:23;35.50;31.30
66928;DHT22;59882;45.624;11.698;2022-07-17T14:33:49;35.60;30.80
66928;DHT22;59882;45.624;11.698;2022-07-17T14:36:14;35.60;30.60
66928;DHT22;59882;45.624;11.698;2022-07-17T14:38:40;35.60;30.40
66928;DHT22;59882;45.624;11.698;2022-07-17T14:41:06;35.70;30.60
66928;DHT22;59882;45.624;11.698;2022-07-17T14:43:32;35.70;30.50
66928;DHT22;59882;45.624;11.698;2022-07-17T14:45:57;35.70;29.90
66928;DHT22;59882;45.624;11.698;2022-07-17T14:48:23;35.70;29.80
66928;DHT22;59882;45.624;11.698;2022-07-17T14:50:49;35.70;30.50
66928;DHT22;59882;45.624;11.698;2022-07-17T14:53:14;35.70;30.70
66928;DHT22;59882;45.624;11.698;2022-07-17T14:55:40;35.70;30.90
66928;DHT22;59882;45.624;11.698;2022-07-17T14:58:06;35.70;30.70
66928;DHT22;59882;45.624;11.698;2022-07-17T15:00:31;35.70;30.90
66928;DHT22;59882;45.624;11.698;2022-07-17T15:02:57;35.70;31.00
66928;DHT22;59882;45.624;11.698;2022-07-17T15:05:23;35.80;31.00
66928;DHT22;59882;45.624;11.698;2022-07-17T15:07:49;35.80;31.10
66928;DHT22;59882;45.624;11.698;2022-07-17T15:10:14;35.80;30.40
66928;DHT22;59882;45.624;11.698;2022-07-17T15:12:40;35.90;30.70
66928;DHT22;59882;45.624;11.698;2022-07-17T15:15:06;35.90;30.90
66928;DHT22;59882;45.624;11.698;2022-07-17T15:17:32;36.00;30.90
66928;DHT22;59882;45.624;11.698;2022-07-17T15:19:58;36.00;30.70
66928;DHT22;59882;45.624;11.698;2022-07-17T15:22:24;36.00;30.70
66928;DHT22;59882;45.624;11.698;2022-07-17T15:24:49;36.00;30.70
66928;DHT22;59882;45.624;11.698;2022-07-17T15:27:15;36.00;30.70
66928;DHT22;59882;45.624;11.698;2022-07-17T15:29:41;36.00;30.80
66928;DHT22;59882;45.624;11.698;2022-07-17T15:32:07;36.00;31.10